sensor_id;sensor_type;location;lat;lon;timestamp;temperature;humidity
50067;DHT22;35952;52.524;13.340;2022-08-01T00:01:36;22.60;79.50
50067;DHT22;35952;52.524;13.340;2022-08-01T00:04:02;22.60;79.90
50067;DHT22;35952;52.524;13.340;2022-08-01T00:06:28;22.60;80.00
50067;DHT22;35952;52.524;13.340;2022-08-01T00:08:54;22.60;80.40
50067;DHT22;35952;52.524;13.340;2022-08-01T00:11:20;22.70;80.60
50067;DHT22;35952;52.524;13.340;2022-08-01T00:13:46;22.60;81.00
50067;DHT22;35952;52.524;13.340;2022-08-01T00:16:12;22.50;81.60
50067;DHT22;35952;52.524;13.340;2022-08-01T00:18:37;22.50;82.50
50067;DHT22;35952;52.524;13.340;2022-08-01T00:21:03;22.40;83.10
50067;DHT22;35952;52.524;13.340;2022-08-01T00:23:29;22.30;83.80
50067;DHT22;35952;52.524;13.340;2022-08-01T00:25:54;22.30;84.80
50067;DHT22;35952;52.524;13.340;2022-08-01T00:28:20;22.30;85.70
50067;DHT22;35952;52.524;13.340;2022-08-01T00:30:45;22.30;86.50
50067;DHT22;35952;52.524;13.340;2022-08-01T00:33:11;22.30;87.20
50067;DHT22;35952;52.524;13.340;2022-08-01T00:35:36;22.20;88.40
50067;DHT22;35952;52.524;13.340;2022-08-01T00:38:02;22.20;89.60
50067;DHT22;35952;52.524;13.340;2022-08-01T00:40:28;22.00;90.40
50067;DHT22;35952;52.524;13.340;2022-08-01T00:42:53;22.00;91.30
50067;DHT22;35952;52.524;13.340;2022-08-01T00:45:19;21.90;92.20
50067;DHT22;35952;52.524;13.340;2022-08-01T00:47:44;21.90;93.10
50067;DHT22;35952;52.524;13.340;2022-08-01T00:50:10;21.90;94.30
50067;DHT22;35952;52.524;13.340;2022-08-01T00:52:36;21.70;95.60
50067;DHT22;35952;52.524;13.340;2022-08-01T00:55:04;21.80;97.00
50067;DHT22;35952;52.524;13.340;2022-08-01T00:57:29;21.80;98.30
50067;DHT22;35952;52.524;13.340;2022-08-01T00:59:56;21.80;99.40
50067;DHT22;35952;52.524;13.340;2022-08-01T01:02:21;21.80;99.90
50067;DHT22;35952;52.524;13.340;2022-08-01T01:04:47;21.70;99.90
50067;DHT22;35952;52.524;13.340;2022-08-01T01:13:13;21.60;99.90
50067;DHT22;35952;52.524;13.340;2022-08-01T01:15:55;21.60;99.90
50067;DHT22;35952;52.524;13.340;2022-08-01T01:18:32;21.50;99.90
50067;DHT22;35952;52.524;13.340;2022-08-01T01:24:11;21.60;99.90
50067;DHT22;35952;52.524;13.340;2022-08-01T01:31:48;21.50;99.90
50067;DHT22;35952;52.524;13.340;2022-08-01T01:34:18;21.70;99.90
50067;DHT22;35952;52.524;13.340;2022-08-01T01:36:46;21.60;99.90
50067;DHT22;35952;52.524;13.340;2022-08-01T01:39:13;21.40;99.90
50067;DHT22;35952;52.524;13.340;2022-08-01T01:41:40;21.40;99.90
50067;DHT22;35952;52.524;13.340;2022-08-01T01:44:06;21.60;99.90
50067;DHT22;35952;52.524;13.340;2022-08-01T01:46:34;21.50;99.90
50067;DHT22;35952;52.524;13.340;2022-08-01T01:49:01;21.60;99.90
50067;DHT22;35952;52.524;13.340;2022-08-01T01:51:28;21.70;99.90
50067;DHT22;35952;52.524;13.340;2022-08-01T01:53:56;21.60;99.90
50067;DHT22;35952;52.524;13.340;2022-08-01T01:56:22;21.70;99.90
50067;DHT22;35952;52.524;13.340;2022-08-01T01:58:53;21.70;99.90
50067;DHT22;35952;52.524;13.340;2022-08-01T02:01:21;21.60;99.90
50067;DHT22;35952;52.524;13.340;2022-08-01T02:03:49;21.50;99.90
50067;DHT22;35952;52.524;13.340;2022-08-01T02:06:16;21.50;99.90
50067;DHT22;35952;52.524;13.340;2022-08-01T02:08:42;21.50;99.90
50067;DHT22;35952;52.524;13.340;2022-08-01T02:11:09;21.60;99.90
50067;DHT22;35952;52.524;13.340;2022-08-01T02:13:55;21.60;99.90
50067;DHT22;35952;52.524;13.340;2022-08-01T02:16:25;21.50;99.90
50067;DHT22;35952;52.524;13.340;2022-08-01T02:18:51;21.30;99.90
50067;DHT22;35952;52.524;13.340;2022-08-01T02:21:23;21.40;99.90
50067;DHT22;35952;52.524;13.340;2022-08-01T02:23:49;21.40;99.90
50067;DHT22;35952;52.524;13.340;2022-08-01T02:26:17;21.40;99.90
50067;DHT22;35952;52.524;13.340;2022-08-01T02:28:56;21.30;99.90
50067;DHT22;35952;52.524;13.340;2022-08-01T02:31:23;21.20;99.90
50067;DHT22;35952;52.524;13.340;2022-08-01T02:34:02;21.10;99.90
50067;DHT22;35952;52.524;13.340;2022-08-01T02:36:30;20.80;99.90
50067;DHT22;35952;52.524;13.340;2022-08-01T02:38:58;21.00;99.90
50067;DHT22;35952;52.524;13.340;2022-08-01T02:41:26;21.10;99.90
50067;DHT22;35952;52.524;13.340;2022-08-01T02:43:53;21.00;99.90
50067;DHT22;35952;52.524;13.340;2022-08-01T02:46:26;21.10;99.90
50067;DHT22;35952;52.524;13.340;2022-08-01T02:48:55;21.20;99.90
50067;DHT22;35952;52.524;13.340;2022-08-01T02:51:23;21.10;99.90
50067;DHT22;35952;52.524;13.340;2022-08-01T02:53:52;21.20;99.90
50067;DHT22;35952;52.524;13.340;2022-08-01T02:56:19;21.20;99.90
50067;DHT22;35952;52.524;13.340;2022-08-01T02:58:47;21.10;99.90
50067;DHT22;35952;52.524;13.340;2022-08-01T03:01:15;21.10;99.90
50067;DHT22;35952;52.524;13.340;2022-08-01T03:03:41;21.10;99.90
50067;DHT22;35952;52.524;13.340;2022-08-01T03:06:08;21.00;99.90
50067;DHT22;35952;52.524;13.340;2022-08-01T03:08:34;21.00;99.90
50067;DHT22;35952;52.524;13.340;2022-08-01T03:11:02;21.00;99.90
50067;DHT22;35952;52.524;13.340;2022-08-01T03:13:29;20.80;99.90
50067;DHT22;35952;52.524;13.340;2022-08-01T03:15:56;20.80;99.90
50067;DHT22;35952;52.524;13.340;2022-08-01T03:18:24;20.80;99.90
50067;DHT22;35952;52.524;13.340;2022-08-01T03:20:52;20.90;99.90
50067;DHT22;35952;52.524;13.340;2022-08-01T03:23:19;20.90;99.90
50067;DHT22;35952;52.524;13.340;2022-08-01T03:25:47;21.00;99.90
50067;DHT22;35952;52.524;13.340;2022-08-01T03:28:14;21.10;99.90
50067;DHT22;35952;52.524;13.340;2022-08-01T03:30:42;21.00;99.90
50067;DHT22;35952;52.524;13.340;2022-08-01T03:33:08;21.00;99.90
50067;DHT22;35952;52.524;13.340;2022-08-01T03:35:39;21.00;99.90
50067;DHT22;35952;52.524;13.340;2022-08-01T03:38:08;20.90;99.90
50067;DHT22;35952;52.524;13.340;2022-08-01T03:40:39;21.00;99.90
50067;DHT22;35952;52.524;13.340;2022-08-01T03:43:13;21.10;99.90
50067;DHT22;35952;52.524;13.340;2022-08-01T03:45:41;21.10;99.90
50067;DHT22;35952;52.524;13.340;2022-08-01T03:48:16;21.10;99.90
50067;DHT22;35952;52.524;13.340;2022-08-01T03:50:46;21.00;99.90
50067;DHT22;35952;52.524;13.340;2022-08-01T03:53:13;21.00;99.90
50067;DHT22;35952;52.524;13.340;2022-08-01T03:55:40;21.00;99.90
50067;DHT22;35952;52.524;13.340;2022-08-01T03:58:08;21.10;99.90
50067;DHT22;35952;52.524;13.340;2022-08-01T04:00:36;21.00;99.90
50067;DHT22;35952;52.524;13.340;2022-08-01T04:03:04;21.10;99.90
50067;DHT22;35952;52.524;13.340;2022-08-01T04:05:30;21.00;99.90
50067;DHT22;35952;52.524;13.340;2022-08-01T04:07:56;21.10;99.90
50067;DHT22;35952;52.524;13.340;2022-08-01T04:10:23;21.10;99.90
50067;DHT22;35952;52.524;13.340;2022-08-01T04:12:48;21.00;99.90
50067;DHT22;35952;52.524;13.340;2022-08-01T04:15:14;21.10;99.90
50067;DHT22;35952;52.524;13.340;2022-08-01T04:17:40;21.10;99.90
50067;DHT22;35952;52.524;13.340;2022-08-01T04:20:06;21.00;99.90
50067;DHT22;35952;52.524;13.340;2022-08-01T04:22:32;21.10;99.90
50067;DHT22;35952;52.524;13.340;2022-08-01T04:24:59;21.00;99.90
50067;DHT22;35952;52.524;13.340;2022-08-01T04:27:30;21.00;99.90
50067;DHT22;35952;52.524;13.340;2022-08-01T04:29:59;21.10;99.90
50067;DHT22;35952;52.524;13.340;2022-08-01T04:32:27;21.00;99.90
50067;DHT22;35952;52.524;13.340;2022-08-01T04:34:57;21.00;99.90
50067;DHT22;35952;52.524;13.340;2022-08-01T04:37:25;21.00;99.90
50067;DHT22;35952;52.524;13.340;2022-08-01T04:39:52;21.00;99.90
50067;DHT22;35952;52.524;13.340;2022-08-01T04:42:19;21.00;99.90
50067;DHT22;35952;52.524;13.340;2022-08-01T04:44:45;21.10;99.90
50067;DHT22;35952;52.524;13.340;2022-08-01T04:47:11;21.10;99.90
50067;DHT22;35952;52.524;13.340;2022-08-01T04:49:38;21.00;99.90
50067;DHT22;35952;52.524;13.340;2022-08-01T04:52:04;21.00;99.90
50067;DHT22;35952;52.524;13.340;2022-08-01T04:54:33;21.00;99.90
50067;DHT22;35952;52.524;13.340;2022-08-01T04:57:02;20.90;99.90
50067;DHT22;35952;52.524;13.340;2022-08-01T04:59:35;21.00;99.90
50067;DHT22;35952;52.524;13.340;2022-08-01T05:02:14;20.90;99.90
50067;DHT22;35952;52.524;13.340;2022-08-01T05:04:45;20.90;99.90
50067;DHT22;35952;52.524;13.340;2022-08-01T05:07:14;20.90;99.90
50067;DHT22;35952;52.524;13.340;2022-08-01T05:09:42;20.80;99.90
50067;DHT22;35952;52.524;13.340;2022-08-01T05:12:09;20.90;99.90
50067;DHT22;35952;52.524;13.340;2022-08-01T05:14:35;21.00;99.90
50067;DHT22;35952;52.524;13.340;2022-08-01T05:17:03;20.90;99.90
50067;DHT22;35952;52.524;13.340;2022-08-01T05:19:36;21.00;99.90
50067;DHT22;35952;52.524;13.340;2022-08-01T05:22:04;21.00;99.90
50067;DHT22;35952;52.524;13.340;2022-08-01T05:24:31;21.00;99.90
50067;DHT22;35952;52.524;13.340;2022-08-01T05:27:06;21.00;99.90
50067;DHT22;35952;52.524;13.340;2022-08-01T05:29:33;20.90;99.90
50067;DHT22;35952;52.524;13.340;2022-08-01T05:32:05;21.00;99.90
50067;DHT22;35952;52.524;13.340;2022-08-01T05:34:31;21.10;99.90
50067;DHT22;35952;52.524;13.340;2022-08-01T05:36:57;21.10;99.90
50067;DHT22;35952;52.524;13.340;2022-08-01T05:39:23;21.00;99.90
50067;DHT22;35952;52.524;13.340;2022-08-01T05:41:52;21.00;99.90
50067;DHT22;35952;52.524;13.340;2022-08-01T05:44:17;21.10;99.90
50067;DHT22;35952;52.524;13.340;2022-08-01T05:46:43;21.20;99.90
50067;DHT22;35952;52.524;13.340;2022-08-01T05:49:08;21.30;99.90
50067;DHT22;35952;52.524;13.340;2022-08-01T05:51:34;21.50;99.90
50067;DHT22;35952;52.524;13.340;2022-08-01T05:54:00;21.30;99.90
50067;DHT22;35952;52.524;13.340;2022-08-01T05:56:26;21.50;99.90
50067;DHT22;35952;52.524;13.340;2022-08-01T05:58:51;21.60;99.90
50067;DHT22;35952;52.524;13.340;2022-08-01T06:01:18;21.60;99.90
50067;DHT22;35952;52.524;13.340;2022-08-01T06:03:44;21.50;99.90
50067;DHT22;35952;52.524;13.340;2022-08-01T06:06:09;21.40;99.90
50067;DHT22;35952;52.524;13.340;2022-08-01T06:08:35;21.30;99.90
50067;DHT22;35952;52.524;13.340;2022-08-01T06:11:01;21.30;99.90
50067;DHT22;35952;52.524;13.340;2022-08-01T06:13:27;21.30;99.90
50067;DHT22;35952;52.524;13.340;2022-08-01T06:15:52;21.30;99.90
50067;DHT22;35952;52.524;13.340;2022-08-01T06:18:18;21.20;99.90
50067;DHT22;35952;52.524;13.340;2022-08-01T06:20:44;21.30;99.90
50067;DHT22;35952;52.524;13.340;2022-08-01T06:23:09;21.20;99.90
50067;DHT22;35952;52.524;13.340;2022-08-01T06:25:35;21.20;99.90
50067;DHT22;35952;52.524;13.340;2022-08-01T06:28:01;21.20;99.90
50067;DHT22;35952;52.524;13.340;2022-08-01T06:30:26;21.30;99.90
50067;DHT22;35952;52.524;13.340;2022-08-01T06:32:52;21.30;99.90
50067;DHT22;35952;52.524;13.340;2022-08-01T06:35:18;21.30;99.90
50067;DHT22;35952;52.524;13.340;2022-08-01T06:37:44;21.40;99.90
50067;DHT22;35952;52.524;13.340;2022-08-01T06:40:13;21.60;99.90
50067;DHT22;35952;52.524;13.340;2022-08-01T06:42:38;21.60;99.90
50067;DHT22;35952;52.524;13.340;2022-08-01T06:45:05;21.70;99.90
50067;DHT22;35952;52.524;13.340;2022-08-01T06:47:32;21.70;99.90
50067;DHT22;35952;52.524;13.340;2022-08-01T06:49:57;21.80;99.90
50067;DHT22;35952;52.524;13.340;2022-08-01T06:52:23;21.80;99.90
50067;DHT22;35952;52.524;13.340;2022-08-01T06:54:48;22.00;99.90
50067;DHT22;35952;52.524;13.340;2022-08-01T06:57:14;22.00;99.90
50067;DHT22;35952;52.524;13.340;2022-08-01T06:59:39;22.00;99.90
50067;DHT22;35952;52.524;13.340;2022-08-01T07:02:05;21.80;99.90
50067;DHT22;35952;52.524;13.340;2022-08-01T07:04:31;21.70;99.90
50067;DHT22;35952;52.524;13.340;2022-08-01T07:06:57;21.80;99.90
50067;DHT22;35952;52.524;13.340;2022-08-01T07:09:23;21.80;99.90
50067;DHT22;35952;52.524;13.340;2022-08-01T07:11:48;21.80;99.90
50067;DHT22;35952;52.524;13.340;2022-08-01T07:14:15;21.80;99.90
50067;DHT22;35952;52.524;13.340;2022-08-01T07:16:41;21.70;99.90
50067;DHT22;35952;52.524;13.340;2022-08-01T07:19:07;21.70;99.90
50067;DHT22;35952;52.524;13.340;2022-08-01T07:21:33;21.80;99.90
50067;DHT22;35952;52.524;13.340;2022-08-01T07:23:58;21.80;99.90
50067;DHT22;35952;52.524;13.340;2022-08-01T07:26:24;21.80;99.90
50067;DHT22;35952;52.524;13.340;2022-08-01T07:28:49;21.90;99.90
50067;DHT22;35952;52.524;13.340;2022-08-01T07:31:15;22.00;99.90
50067;DHT22;35952;52.524;13.340;2022-08-01T07:33:40;22.00;99.90
50067;DHT22;35952;52.524;13.340;2022-08-01T07:36:07;22.00;99.90
50067;DHT22;35952;52.524;13.340;2022-08-01T07:38:32;21.90;99.90
50067;DHT22;35952;52.524;13.340;2022-08-01T07:40:57;22.00;99.90
50067;DHT22;35952;52.524;13.340;2022-08-01T07:43:23;22.10;99.90
50067;DHT22;35952;52.524;13.340;2022-08-01T07:45:49;21.90;99.90
50067;DHT22;35952;52.524;13.340;2022-08-01T07:48:14;22.10;99.90
50067;DHT22;35952;52.524;13.340;2022-08-01T07:50:40;22.20;99.90
50067;DHT22;35952;52.524;13.340;2022-08-01T07:53:05;22.20;99.90
50067;DHT22;35952;52.524;13.340;2022-08-01T07:55:31;22.00;99.90
50067;DHT22;35952;52.524;13.340;2022-08-01T07:57:56;22.10;99.90
50067;DHT22;35952;52.524;13.340;2022-08-01T08:00:22;22.00;99.90
50067;DHT22;35952;52.524;13.340;2022-08-01T08:02:48;21.90;99.90
50067;DHT22;35952;52.524;13.340;2022-08-01T08:05:13;21.80;99.90
50067;DHT22;35952;52.524;13.340;2022-08-01T08:07:39;21.70;99.90
50067;DHT22;35952;52.524;13.340;2022-08-01T08:10:05;21.60;99.90
50067;DHT22;35952;52.524;13.340;2022-08-01T08:12:31;21.60;99.90
50067;DHT22;35952;52.524;13.340;2022-08-01T08:14:57;21.70;99.90
50067;DHT22;35952;52.524;13.340;2022-08-01T08:17:26;21.70;99.90
50067;DHT22;35952;52.524;13.340;2022-08-01T08:19:52;21.70;99.90
50067;DHT22;35952;52.524;13.340;2022-08-01T08:22:18;21.80;99.90
50067;DHT22;35952;52.524;13.340;2022-08-01T08:24:44;21.80;99.90
50067;DHT22;35952;52.524;13.340;2022-08-01T08:27:10;21.90;99.90
50067;DHT22;35952;52.524;13.340;2022-08-01T08:29:36;21.90;99.90
50067;DHT22;35952;52.524;13.340;2022-08-01T08:32:02;21.90;99.90
50067;DHT22;35952;52.524;13.340;2022-08-01T08:34:28;21.90;99.90
50067;DHT22;35952;52.524;13.340;2022-08-01T08:36:55;22.00;99.90
50067;DHT22;35952;52.524;13.340;2022-08-01T08:39:21;22.00;99.90
50067;DHT22;35952;52.524;13.340;2022-08-01T08:41:48;22.10;99.90
50067;DHT22;35952;52.524;13.340;2022-08-01T08:44:14;22.20;99.90
50067;DHT22;35952;52.524;13.340;2022-08-01T08:46:45;22.20;99.90
50067;DHT22;35952;52.524;13.340;2022-08-01T08:49:13;22.10;99.90
50067;DHT22;35952;52.524;13.340;2022-08-01T08:51:41;22.20;99.90
50067;DHT22;35952;52.524;13.340;2022-08-01T08:54:07;22.20;99.90
50067;DHT22;35952;52.524;13.340;2022-08-01T08:56:37;22.20;99.90
50067;DHT22;35952;52.524;13.340;2022-08-01T08:59:03;22.30;99.90
50067;DHT22;35952;52.524;13.340;2022-08-01T09:01:33;22.40;99.90
50067;DHT22;35952;52.524;13.340;2022-08-01T09:04:01;22.70;99.90
50067;DHT22;35952;52.524;13.340;2022-08-01T09:06:26;22.90;99.90
50067;DHT22;35952;52.524;13.340;2022-08-01T09:08:53;23.00;99.90
50067;DHT22;35952;52.524;13.340;2022-08-01T09:11:19;22.90;99.90
50067;DHT22;35952;52.524;13.340;2022-08-01T09:14:04;22.80;99.90
50067;DHT22;35952;52.524;13.340;2022-08-01T09:16:31;22.70;99.90
50067;DHT22;35952;52.524;13.340;2022-08-01T09:21:55;22.50;99.90
50067;DHT22;35952;52.524;13.340;2022-08-01T09:24:21;22.50;99.90
50067;DHT22;35952;52.524;13.340;2022-08-01T09:26:46;22.60;99.90
50067;DHT22;35952;52.524;13.340;2022-08-01T09:29:25;22.70;99.90
50067;DHT22;35952;52.524;13.340;2022-08-01T09:31:51;22.80;99.90
50067;DHT22;35952;52.524;13.340;2022-08-01T09:34:27;22.80;99.90
50067;DHT22;35952;52.524;13.340;2022-08-01T09:36:55;22.80;99.90
50067;DHT22;35952;52.524;13.340;2022-08-01T09:39:29;22.90;99.90
50067;DHT22;35952;52.524;13.340;2022-08-01T09:41:58;22.90;99.90
50067;DHT22;35952;52.524;13.340;2022-08-01T09:44:38;22.80;99.90
50067;DHT22;35952;52.524;13.340;2022-08-01T09:47:03;22.70;99.90
50067;DHT22;35952;52.524;13.340;2022-08-01T09:49:32;22.70;99.90
50067;DHT22;35952;52.524;13.340;2022-08-01T09:51:58;22.50;99.90
50067;DHT22;35952;52.524;13.340;2022-08-01T09:54:32;22.50;99.90
50067;DHT22;35952;52.524;13.340;2022-08-01T09:57:17;22.50;99.90
50067;DHT22;35952;52.524;13.340;2022-08-01T09:59:46;22.50;99.90
50067;DHT22;35952;52.524;13.340;2022-08-01T10:02:13;22.50;99.90
50067;DHT22;35952;52.524;13.340;2022-08-01T10:04:48;22.50;99.90
50067;DHT22;35952;52.524;13.340;2022-08-01T10:07:14;22.60;99.90
50067;DHT22;35952;52.524;13.340;2022-08-01T10:09:41;22.70;99.90
50067;DHT22;35952;52.524;13.340;2022-08-01T10:12:12;22.80;99.90
50067;DHT22;35952;52.524;13.340;2022-08-01T10:14:38;22.80;99.90
50067;DHT22;35952;52.524;13.340;2022-08-01T10:17:07;22.90;99.90
50067;DHT22;35952;52.524;13.340;2022-08-01T10:19:34;22.90;99.90
50067;DHT22;35952;52.524;13.340;2022-08-01T10:22:01;22.80;99.90
50067;DHT22;35952;52.524;13.340;2022-08-01T10:24:29;22.90;99.90
50067;DHT22;35952;52.524;13.340;2022-08-01T10:26:59;22.90;99.90
50067;DHT22;35952;52.524;13.340;2022-08-01T10:29:31;23.00;99.90
50067;DHT22;35952;52.524;13.340;2022-08-01T10:32:00;23.00;99.90
50067;DHT22;35952;52.524;13.340;2022-08-01T10:34:27;23.10;99.90
50067;DHT22;35952;52.524;13.340;2022-08-01T10:36:53;23.20;99.90
50067;DHT22;35952;52.524;13.340;2022-08-01T10:39:19;23.20;99.90
50067;DHT22;35952;52.524;13.340;2022-08-01T10:41:46;23.20;99.90
50067;DHT22;35952;52.524;13.340;2022-08-01T10:44:11;23.10;99.90
50067;DHT22;35952;52.524;13.340;2022-08-01T10:46:39;23.10;99.90
50067;DHT22;35952;52.524;13.340;2022-08-01T10:49:08;23.10;99.90
50067;DHT22;35952;52.524;13.340;2022-08-01T10:51:37;23.10;99.90
50067;DHT22;35952;52.524;13.340;2022-08-01T10:54:08;23.10;99.90
50067;DHT22;35952;52.524;13.340;2022-08-01T10:56:46;23.10;99.90
50067;DHT22;35952;52.524;13.340;2022-08-01T10:59:30;23.20;99.90
50067;DHT22;35952;52.524;13.340;2022-08-01T11:02:03;23.20;99.90
50067;DHT22;35952;52.524;13.340;2022-08-01T11:07:16;23.30;99.90
50067;DHT22;35952;52.524;13.340;2022-08-01T11:09:47;23.40;99.90
50067;DHT22;35952;52.524;13.340;2022-08-01T11:12:16;23.50;99.90
50067;DHT22;35952;52.524;13.340;2022-08-01T11:17:34;23.50;99.90
50067;DHT22;35952;52.524;13.340;2022-08-01T11:20:13;23.40;99.90
50067;DHT22;35952;52.524;13.340;2022-08-01T11:25:24;23.20;99.90
50067;DHT22;35952;52.524;13.340;2022-08-01T11:30:39;22.90;99.90
50067;DHT22;35952;52.524;13.340;2022-08-01T11:33:04;22.70;99.90
50067;DHT22;35952;52.524;13.340;2022-08-01T11:35:32;22.60;99.90
50067;DHT22;35952;52.524;13.340;2022-08-01T11:38:27;22.50;99.90
50067;DHT22;35952;52.524;13.340;2022-08-01T11:41:14;22.50;99.90
50067;DHT22;35952;52.524;13.340;2022-08-01T11:43:59;22.40;99.90
50067;DHT22;35952;52.524;13.340;2022-08-01T11:47:00;22.50;99.90
50067;DHT22;35952;52.524;13.340;2022-08-01T11:54:39;22.90;99.90
50067;DHT22;35952;52.524;13.340;2022-08-01T11:57:08;23.00;99.90
50067;DHT22;35952;52.524;13.340;2022-08-01T11:59:48;23.10;99.90
50067;DHT22;35952;52.524;13.340;2022-08-01T12:02:23;23.30;99.90
50067;DHT22;35952;52.524;13.340;2022-08-01T12:05:00;23.50;99.90
50067;DHT22;35952;52.524;13.340;2022-08-01T12:07:27;23.70;99.90
50067;DHT22;35952;52.524;13.340;2022-08-01T12:09:58;23.80;99.90
50067;DHT22;35952;52.524;13.340;2022-08-01T12:12:26;24.00;99.90
50067;DHT22;35952;52.524;13.340;2022-08-01T12:14:59;24.30;99.90
50067;DHT22;35952;52.524;13.340;2022-08-01T12:17:29;24.50;99.90
50067;DHT22;35952;52.524;13.340;2022-08-01T12:19:55;24.60;99.90
50067;DHT22;35952;52.524;13.340;2022-08-01T12:22:22;24.80;99.90
50067;DHT22;35952;52.524;13.340;2022-08-01T12:24:48;25.00;99.90
50067;DHT22;35952;52.524;13.340;2022-08-01T12:27:26;25.00;99.90
50067;DHT22;35952;52.524;13.340;2022-08-01T12:29:52;25.10;99.90
50067;DHT22;35952;52.524;13.340;2022-08-01T12:32:30;25.10;99.90
50067;DHT22;35952;52.524;13.340;2022-08-01T12:35:12;25.30;99.90
50067;DHT22;35952;52.524;13.340;2022-08-01T12:37:47;25.40;99.90
50067;DHT22;35952;52.524;13.340;2022-08-01T12:40:18;25.50;99.90
50067;DHT22;35952;52.524;13.340;2022-08-01T12:42:47;25.50;99.90
50067;DHT22;35952;52.524;13.340;2022-08-01T12:45:15;25.40;99.90
50067;DHT22;35952;52.524;13.340;2022-08-01T12:47:41;25.30;99.90
50067;DHT22;35952;52.524;13.340;2022-08-01T12:50:11;25.20;99.90
50067;DHT22;35952;52.524;13.340;2022-08-01T12:52:37;25.30;99.90
50067;DHT22;35952;52.524;13.340;2022-08-01T12:55:04;25.30;99.90
50067;DHT22;35952;52.524;13.340;2022-08-01T12:57:30;25.40;99.90
50067;DHT22;35952;52.524;13.340;2022-08-01T13:00:10;25.60;99.90
50067;DHT22;35952;52.524;13.340;2022-08-01T13:02:36;25.80;99.90
50067;DHT22;35952;52.524;13.340;2022-08-01T13:05:03;25.80;99.90
50067;DHT22;35952;52.524;13.340;2022-08-01T13:07:40;25.50;99.90
50067;DHT22;35952;52.524;13.340;2022-08-01T13:10:07;25.30;99.90
50067;DHT22;35952;52.524;13.340;2022-08-01T13:12:33;25.10;99.90
50067;DHT22;35952;52.524;13.340;2022-08-01T13:14:59;24.80;99.90
50067;DHT22;35952;52.524;13.340;2022-08-01T13:17:31;24.70;99.90
50067;DHT22;35952;52.524;13.340;2022-08-01T13:19:57;24.50;99.90
50067;DHT22;35952;52.524;13.340;2022-08-01T13:22:32;24.50;99.90
50067;DHT22;35952;52.524;13.340;2022-08-01T13:25:14;24.50;99.90
50067;DHT22;35952;52.524;13.340;2022-08-01T13:27:40;24.40;99.90
50067;DHT22;35952;52.524;13.340;2022-08-01T13:30:19;24.50;99.90
50067;DHT22;35952;52.524;13.340;2022-08-01T13:33:00;24.60;99.90
50067;DHT22;35952;52.524;13.340;2022-08-01T13:35:26;24.60;99.90
50067;DHT22;35952;52.524;13.340;2022-08-01T13:37:52;24.70;99.90
50067;DHT22;35952;52.524;13.340;2022-08-01T13:40:26;24.60;99.90
50067;DHT22;35952;52.524;13.340;2022-08-01T13:42:53;24.60;99.90
50067;DHT22;35952;52.524;13.340;2022-08-01T13:45:20;24.50;99.90
50067;DHT22;35952;52.524;13.340;2022-08-01T13:47:45;24.40;99.90
50067;DHT22;35952;52.524;13.340;2022-08-01T13:50:11;24.20;99.90
50067;DHT22;35952;52.524;13.340;2022-08-01T13:52:36;24.20;99.90
50067;DHT22;35952;52.524;13.340;2022-08-01T13:55:02;24.20;99.90
50067;DHT22;35952;52.524;13.340;2022-08-01T13:57:28;24.20;99.90
50067;DHT22;35952;52.524;13.340;2022-08-01T13:59:54;24.30;99.90
50067;DHT22;35952;52.524;13.340;2022-08-01T14:02:20;24.40;99.90
50067;DHT22;35952;52.524;13.340;2022-08-01T14:04:45;24.40;99.90
50067;DHT22;35952;52.524;13.340;2022-08-01T14:07:11;24.50;99.90
50067;DHT22;35952;52.524;13.340;2022-08-01T14:09:37;24.80;99.90
50067;DHT22;35952;52.524;13.340;2022-08-01T14:12:03;25.60;99.90
50067;DHT22;35952;52.524;13.340;2022-08-01T14:14:29;26.90;99.40
50067;DHT22;35952;52.524;13.340;2022-08-01T14:16:55;28.30;94.00
50067;DHT22;35952;52.524;13.340;2022-08-01T14:19:21;29.60;89.80
50067;DHT22;35952;52.524;13.340;2022-08-01T14:21:46;30.60;79.60
50067;DHT22;35952;52.524;13.340;2022-08-01T14:24:12;30.90;76.30
50067;DHT22;35952;52.524;13.340;2022-08-01T14:26:37;31.40;73.80
50067;DHT22;35952;52.524;13.340;2022-08-01T14:29:03;31.50;68.10
50067;DHT22;35952;52.524;13.340;2022-08-01T14:31:28;30.80;66.80
50067;DHT22;35952;52.524;13.340;2022-08-01T14:33:55;30.10;68.80
50067;DHT22;35952;52.524;13.340;2022-08-01T14:36:20;29.10;71.50
50067;DHT22;35952;52.524;13.340;2022-08-01T14:38:46;28.30;75.50
50067;DHT22;35952;52.524;13.340;2022-08-01T14:41:12;27.90;78.60
50067;DHT22;35952;52.524;13.340;2022-08-01T14:43:38;27.70;80.50
50067;DHT22;35952;52.524;13.340;2022-08-01T14:46:04;27.30;81.70
50067;DHT22;35952;52.524;13.340;2022-08-01T14:48:29;27.00;83.60
50067;DHT22;35952;52.524;13.340;2022-08-01T14:50:55;26.60;86.90
50067;DHT22;35952;52.524;13.340;2022-08-01T14:53:21;26.40;87.30
50067;DHT22;35952;52.524;13.340;2022-08-01T14:55:47;26.20;88.70
50067;DHT22;35952;52.524;13.340;2022-08-01T14:58:12;25.80;90.60
50067;DHT22;35952;52.524;13.340;2022-08-01T15:00:38;25.50;92.00
50067;DHT22;35952;52.524;13.340;2022-08-01T15:03:03;25.30;93.00
50067;DHT22;35952;52.524;13.340;2022-08-01T15:05:29;25.10;93.80
50067;DHT22;35952;52.524;13.340;2022-08-01T15:07:55;25.00;94.80
50067;DHT22;35952;52.524;13.340;2022-08-01T15:10:21;24.90;96.00
50067;DHT22;35952;52.524;13.340;2022-08-01T15:12:48;24.70;97.10
50067;DHT22;35952;52.524;13.340;2022-08-01T15:15:13;24.60;98.10
50067;DHT22;35952;52.524;13.340;2022-08-01T15:17:39;24.50;97.00
50067;DHT22;35952;52.524;13.340;2022-08-01T15:20:05;24.40;97.30
50067;DHT22;35952;52.524;13.340;2022-08-01T15:22:32;24.50;96.80
50067;DHT22;35952;52.524;13.340;2022-08-01T15:25:00;24.50;97.00
50067;DHT22;35952;52.524;13.340;2022-08-01T15:27:26;24.60;96.40
50067;DHT22;35952;52.524;13.340;2022-08-01T15:29:52;24.60;96.30
50067;DHT22;35952;52.524;13.340;2022-08-01T15:32:18;24.70;96.30
50067;DHT22;35952;52.524;13.340;2022-08-01T15:34:44;24.80;96.30
50067;DHT22;35952;52.524;13.340;2022-08-01T15:37:10;24.70;96.40
50067;DHT22;35952;52.524;13.340;2022-08-01T15:39:37;24.70;96.70
50067;DHT22;35952;52.524;13.340;2022-08-01T15:42:09;24.90;96.40
50067;DHT22;35952;52.524;13.340;2022-08-01T15:44:34;24.90;96.70
50067;DHT22;35952;52.524;13.340;2022-08-01T15:47:01;24.80;96.50
50067;DHT22;35952;52.524;13.340;2022-08-01T15:49:27;25.00;96.10
50067;DHT22;35952;52.524;13.340;2022-08-01T15:51:53;25.00;96.00
50067;DHT22;35952;52.524;13.340;2022-08-01T15:54:20;25.10;95.90